Time;durP1;ratioP1;P1;durP2;ratioP2;P2;SDS_P1;SDS_P2;PMS_P1;PMS_P2;Temp;Humidity;BMP_temperature;BMP_pressure;BME280_temperature;BME280_humidity;BME280_pressure;Samples;Min_cycle;Max_cycle;Signal;HPM_P1;HPM_P2
2022/03/24 00:00:46;;;;;;;27.77;20.33;;;6.40;90.30;;;;;;5051592;28;20265;-51
2022/03/24 00:03:16;;;;;;;27.90;19.40;;;6.40;90.50;;;;;;5053756;28;20589;-50
2022/03/24 00:05:45;;;;;;;27.00;19.27;;;6.40;90.50;;;;;;5053692;28;20683;-50
2022/03/24 00:08:14;;;;;;;26.70;19.37;;;6.30;90.90;;;;;;5053408;28;20218;-51
2022/03/24 00:10:42;;;;;;;27.03;18.60;;;6.20;91.10;;;;;;5053680;28;20618;-51
2022/03/24 00:13:10;;;;;;;29.40;19.17;;;6.20;91.30;;;;;;5053502;28;20618;-50
2022/03/24 00:15:38;;;;;;;28.83;19.77;;;6.10;91.40;;;;;;5054198;28;20210;-51
2022/03/24 00:18:06;;;;;;;27.73;20.17;;;6.00;91.60;;;;;;5052712;28;20226;-51
2022/03/24 00:20:37;;;;;;;27.57;20.17;;;6.00;91.90;;;;;;5053984;28;20242;-50
2022/03/24 00:23:05;;;;;;;30.10;20.97;;;5.90;92.00;;;;;;5053035;28;20190;-50
2022/03/24 00:25:33;;;;;;;28.33;19.87;;;5.80;92.30;;;;;;5053627;28;20264;-50
2022/03/24 00:28:01;;;;;;;29.97;20.90;;;5.80;92.20;;;;;;5053407;28;20229;-50
2022/03/24 00:30:30;;;;;;;30.87;20.80;;;5.70;92.20;;;;;;5053393;28;20263;-50
2022/03/24 00:32:58;;;;;;;29.07;20.40;;;5.70;92.10;;;;;;5052110;28;20225;-50
2022/03/24 00:35:27;;;;;;;28.47;20.17;;;5.60;92.10;;;;;;5053506;28;20268;-50
2022/03/24 00:37:56;;;;;;;28.23;20.90;;;5.60;92.50;;;;;;5053627;28;20237;-50
2022/03/24 00:40:25;;;;;;;31.17;21.57;;;5.60;92.50;;;;;;5053388;28;20202;-51
2022/03/24 00:42:53;;;;;;;30.53;20.60;;;5.60;92.30;;;;;;5052457;28;20219;-50
2022/03/24 00:45:21;;;;;;;32.60;22.50;;;5.60;92.20;;;;;;5053000;28;20279;-51
2022/03/24 00:47:49;;;;;;;30.30;21.40;;;5.80;92.20;;;;;;5053308;28;20299;-51
2022/03/24 00:50:17;;;;;;;31.63;20.83;;;5.80;92.00;;;;;;5053089;28;20212;-50
2022/03/24 00:52:46;;;;;;;37.90;21.77;;;5.90;92.10;;;;;;5052770;28;20208;-50
2022/03/24 00:55:17;;;;;;;29.00;21.77;;;5.80;91.90;;;;;;5052900;28;20252;-50
2022/03/24 00:57:49;;;;;;;29.90;20.87;;;5.80;92.10;;;;;;5053165;28;20223;-50
2022/03/24 01:00:20;;;;;;;29.90;21.40;;;5.80;92.00;;;;;;5052628;28;20202;-51
2022/03/24 01:02:50;;;;;;;31.73;21.70;;;5.70;91.90;;;;;;5052288;28;20190;-51
2022/03/24 01:05:18;;;;;;;31.90;22.17;;;5.70;91.90;;;;;;5052996;28;20599;-50
2022/03/24 01:07:48;;;;;;;29.57;20.70;;;5.70;91.90;;;;;;5052720;28;20225;-50
2022/03/24 01:10:20;;;;;;;35.83;21.80;;;5.70;92.00;;;;;;5043594;28;20199;-50
2022/03/24 01:12:49;;;;;;;28.73;20.93;;;5.70;92.00;;;;;;5032201;28;20709;-50
2022/03/24 01:15:22;;;;;;;34.57;22.43;;;5.60;92.10;;;;;;5033069;28;20206;-50
2022/03/24 01:17:50;;;;;;;30.97;21.67;;;5.60;92.20;;;;;;5032583;28;20231;-51
2022/03/24 01:20:19;;;;;;;33.50;22.13;;;5.60;92.20;;;;;;5032959;28;20211;-51
2022/03/24 01:22:47;;;;;;;31.10;21.87;;;5.60;92.20;;;;;;5032575;28;20239;-50
2022/03/24 01:25:16;;;;;;;29.93;21.43;;;5.60;92.40;;;;;;5032276;28;20269;-51
2022/03/24 01:27:46;;;;;;;30.77;20.73;;;5.50;92.40;;;;;;5031837;28;20734;-50
2022/03/24 01:30:14;;;;;;;29.80;21.80;;;5.50;92.40;;;;;;5032215;28;20203;-51
2022/03/24 01:32:42;;;;;;;32.30;21.97;;;5.50;92.50;;;;;;5031899;28;20595;-50
2022/03/24 01:35:11;;;;;;;32.47;21.10;;;5.40;92.80;;;;;;5032446;28;20275;-50
2022/03/24 01:37:40;;;;;;;32.00;21.23;;;5.30;92.80;;;;;;5032616;28;20230;-50
2022/03/24 01:40:11;;;;;;;31.30;21.07;;;5.30;93.10;;;;;;5032220;28;20236;-51
2022/03/24 01:42:40;;;;;;;34.17;22.87;;;5.20;93.50;;;;;;5032100;28;20210;-50
2022/03/24 01:45:10;;;;;;;30.90;21.00;;;5.20;93.30;;;;;;5032281;28;20272;-50
2022/03/24 01:47:39;;;;;;;32.37;22.10;;;5.10;93.60;;;;;;5044007;28;20290;-50
2022/03/24 01:50:09;;;;;;;32.87;22.87;;;5.10;93.40;;;;;;5052099;28;20205;-50
2022/03/24 01:52:38;;;;;;;32.13;22.30;;;5.00;94.00;;;;;;5051126;28;20969;-50
2022/03/24 01:55:08;;;;;;;35.63;22.30;;;5.00;93.80;;;;;;5052132;28;20263;-51
2022/03/24 01:57:37;;;;;;;33.60;22.90;;;4.90;93.90;;;;;;5051918;28;20640;-50
2022/03/24 02:00:07;;;;;;;31.10;22.10;;;4.80;94.20;;;;;;5051809;28;20251;-50
2022/03/24 02:02:39;;;;;;;31.30;21.63;;;4.80;94.40;;;;;;5050583;28;20205;-51
2022/03/24 02:05:08;;;;;;;29.00;21.40;;;4.80;94.30;;;;;;5051457;28;20222;-51
2022/03/24 02:07:36;;;;;;;29.63;21.67;;;4.80;94.20;;;;;;5051534;28;20760;-50
2022/03/24 02:10:07;;;;;;;33.57;22.17;;;4.80;94.20;;;;;;5051073;28;20251;-50
2022/03/24 02:12:36;;;;;;;31.37;21.77;;;4.80;94.10;;;;;;5051420;28;20200;-50
2022/03/24 02:15:06;;;;;;;33.40;22.27;;;4.80;94.20;;;;;;5051288;28;20211;-51
2022/03/24 02:17:34;;;;;;;38.67;22.10;;;4.80;94.30;;;;;;5051433;28;20362;-50
2022/03/24 02:20:05;;;;;;;32.07;21.80;;;4.70;94.60;;;;;;5051133;28;20203;-50
2022/03/24 02:22:34;;;;;;;32.50;22.10;;;4.70;94.10;;;;;;5051124;28;20232;-50
2022/03/24 02:25:02;;;;;;;33.20;22.10;;;4.60;94.20;;;;;;5050773;28;20669;-50
2022/03/24 02:27:30;;;;;;;33.30;22.30;;;4.60;94.30;;;;;;5051091;28;20712;-50
2022/03/24 02:29:58;;;;;;;34.73;22.37;;;4.60;94.60;;;;;;5050902;28;20559;-50
2022/03/24 02:32:26;;;;;;;33.43;22.50;;;4.60;94.70;;;;;;5050855;28;20225;-51
2022/03/24 02:34:54;;;;;;;31.93;21.87;;;4.60;94.40;;;;;;5051085;28;20204;-51
2022/03/24 02:37:25;;;;;;;30.30;21.47;;;4.60;94.50;;;;;;5051063;28;20229;-51
2022/03/24 02:39:56;;;;;;;31.33;21.30;;;4.60;94.50;;;;;;5050889;28;20240;-51
2022/03/24 02:42:26;;;;;;;35.50;23.60;;;4.50;94.90;;;;;;5050355;28;20212;-51
2022/03/24 02:44:57;;;;;;;30.30;22.67;;;4.50;95.10;;;;;;5050921;28;20231;-51
2022/03/24 02:47:26;;;;;;;28.90;21.17;;;4.40;95.50;;;;;;5040914;28;20251;-50
2022/03/24 02:49:55;;;;;;;33.43;23.03;;;4.40;95.40;;;;;;5039860;28;20211;-51
2022/03/24 02:52:24;;;;;;;32.30;22.57;;;4.40;95.30;;;;;;5050511;28;20577;-50
2022/03/24 02:54:52;;;;;;;32.60;22.77;;;4.40;95.20;;;;;;5050862;28;20207;-50
2022/03/24 02:57:21;;;;;;;35.93;22.80;;;4.40;95.00;;;;;;5049394;28;20376;-50
2022/03/24 02:59:49;;;;;;;36.93;22.60;;;4.40;95.00;;;;;;5050636;28;20269;-50
2022/03/24 03:02:18;;;;;;;33.40;22.90;;;4.30;95.50;;;;;;5050434;28;20242;-51
2022/03/24 03:04:49;;;;;;;34.67;23.57;;;4.30;95.10;;;;;;5050380;28;20866;-50
2022/03/24 03:07:20;;;;;;;31.33;22.40;;;4.20;95.00;;;;;;5051006;28;20244;-50
2022/03/24 03:09:49;;;;;;;33.20;23.07;;;4.20;95.10;;;;;;5050522;28;20238;-51
2022/03/24 03:12:17;;;;;;;33.00;23.00;;;4.30;95.10;;;;;;5050119;28;20211;-51
2022/03/24 03:14:47;;;;;;;34.20;22.43;;;4.20;95.00;;;;;;5050802;28;20208;-51
2022/03/24 03:17:16;;;;;;;32.73;22.53;;;4.30;94.90;;;;;;5050241;28;20279;-51
2022/03/24 03:19:45;;;;;;;34.37;22.53;;;4.30;94.90;;;;;;5050545;28;20207;-51
2022/03/24 03:22:14;;;;;;;30.10;22.07;;;4.30;94.80;;;;;;5049910;28;20210;-51
2022/03/24 03:24:42;;;;;;;33.00;22.37;;;4.30;94.90;;;;;;5050339;28;20211;-51
2022/03/24 03:27:12;;;;;;;36.03;23.53;;;4.30;95.10;;;;;;5050168;28;20229;-51
2022/03/24 03:29:40;;;;;;;34.73;22.43;;;4.30;94.90;;;;;;5050614;28;20211;-51
2022/03/24 03:32:11;;;;;;;34.23;22.47;;;4.30;94.80;;;;;;5049985;28;20218;-51
2022/03/24 03:34:40;;;;;;;32.60;22.57;;;4.40;94.80;;;;;;5049695;28;20222;-51
2022/03/24 03:37:09;;;;;;;32.10;22.30;;;4.40;94.70;;;;;;5049901;28;20225;-51
2022/03/24 03:39:37;;;;;;;29.03;21.10;;;4.40;94.70;;;;;;5050069;28;20204;-51
2022/03/24 03:42:05;;;;;;;32.63;22.50;;;4.40;94.80;;;;;;5049372;28;20266;-51
2022/03/24 03:44:34;;;;;;;32.80;21.50;;;4.40;94.80;;;;;;5050222;28;20206;-51
2022/03/24 03:47:02;;;;;;;33.17;22.13;;;4.40;94.80;;;;;;5049905;28;20668;-51
2022/03/24 03:49:32;;;;;;;32.53;22.37;;;4.30;94.80;;;;;;5044483;28;20302;-51
2022/03/24 03:52:20;;;;;;;31.13;21.27;;;4.30;94.70;;;;;;5030005;28;20306;-50
2022/03/24 03:54:48;;;;;;;34.40;22.27;;;4.30;94.80;;;;;;5030298;28;20219;-51
2022/03/24 03:57:17;;;;;;;33.87;23.23;;;4.30;94.70;;;;;;5030151;28;20283;-51
2022/03/24 03:59:45;;;;;;;32.63;23.13;;;4.30;94.90;;;;;;5030277;28;20623;-51
2022/03/24 04:02:14;;;;;;;33.00;22.97;;;4.30;94.90;;;;;;5029764;28;20237;-51
2022/03/24 04:04:43;;;;;;;34.37;22.50;;;4.30;94.90;;;;;;5030429;28;20237;-51
2022/03/24 04:07:12;;;;;;;36.10;22.27;;;4.30;94.90;;;;;;5030132;28;20262;-51
2022/03/24 04:09:40;;;;;;;32.00;22.00;;;4.30;94.80;;;;;;5032744;28;20672;-51
2022/03/24 04:12:09;;;;;;;30.93;21.43;;;4.30;94.80;;;;;;5033072;28;20207;-51
2022/03/24 04:14:37;;;;;;;34.03;22.30;;;4.30;94.90;;;;;;5033743;28;20212;-51
2022/03/24 04:17:05;;;;;;;34.03;22.33;;;4.20;95.00;;;;;;5033789;28;20229;-51
2022/03/24 04:19:33;;;;;;;33.73;23.60;;;4.20;95.00;;;;;;5033766;28;20217;-51
2022/03/24 04:22:03;;;;;;;32.40;22.57;;;4.10;95.20;;;;;;5033415;28;20212;-51
2022/03/24 04:24:31;;;;;;;36.37;22.83;;;4.00;95.70;;;;;;5033295;28;20204;-50
2022/03/24 04:26:59;;;;;;;32.33;22.83;;;3.90;95.60;;;;;;5053283;28;20222;-51
2022/03/24 04:29:27;;;;;;;36.20;22.63;;;3.80;96.20;;;;;;5053392;28;20282;-51
2022/03/24 04:31:56;;;;;;;39.50;23.27;;;3.80;96.50;;;;;;5053030;28;20298;-51
2022/03/24 04:34:24;;;;;;;33.80;22.90;;;3.80;96.20;;;;;;5053277;28;20214;-51
2022/03/24 04:36:52;;;;;;;33.90;22.83;;;3.70;96.20;;;;;;5053043;28;20248;-51
2022/03/24 04:39:21;;;;;;;36.27;24.00;;;3.70;96.60;;;;;;5053011;28;20203;-51
2022/03/24 04:41:49;;;;;;;33.77;23.90;;;3.70;96.80;;;;;;5052912;28;20217;-51
2022/03/24 04:44:17;;;;;;;34.37;23.10;;;3.70;96.60;;;;;;5053068;28;20739;-51
2022/03/24 04:46:45;;;;;;;33.90;22.00;;;3.60;96.20;;;;;;5052696;28;20217;-49
2022/03/24 04:49:14;;;;;;;31.33;21.30;;;3.70;96.10;;;;;;5053217;28;20220;-50
2022/03/24 04:51:42;;;;;;;35.27;23.50;;;3.70;96.20;;;;;;5052496;28;20276;-51
2022/03/24 04:54:10;;;;;;;37.07;22.77;;;3.80;96.20;;;;;;5052952;28;20205;-51
2022/03/24 04:56:40;;;;;;;34.13;22.57;;;3.80;96.20;;;;;;5052937;28;20200;-50
2022/03/24 04:59:08;;;;;;;33.87;22.63;;;3.80;96.30;;;;;;5047902;28;20207;-51
2022/03/24 05:01:36;;;;;;;33.57;22.37;;;3.80;96.30;;;;;;5032967;28;20250;-51
2022/03/24 05:04:04;;;;;;;33.73;23.93;;;3.70;96.10;;;;;;5032382;28;20206;-53
2022/03/24 05:06:33;;;;;;;34.43;23.63;;;3.70;96.30;;;;;;5032741;28;20321;-51
2022/03/24 05:09:01;;;;;;;32.53;22.27;;;3.70;96.60;;;;;;5042434;28;20225;-51
2022/03/24 05:11:29;;;;;;;35.20;23.23;;;3.60;96.20;;;;;;5052496;28;20675;-51
2022/03/24 05:13:59;;;;;;;33.03;22.57;;;3.60;96.40;;;;;;5051812;28;20694;-51
2022/03/24 05:16:27;;;;;;;35.77;23.13;;;3.60;96.70;;;;;;5052842;28;20198;-50
2022/03/24 05:18:55;;;;;;;32.40;23.13;;;3.50;96.90;;;;;;5051957;28;20308;-51
2022/03/24 05:21:24;;;;;;;31.90;23.07;;;3.50;96.90;;;;;;5052253;28;20248;-51
2022/03/24 05:23:52;;;;;;;37.53;24.27;;;3.60;96.90;;;;;;5052038;28;20292;-51
2022/03/24 05:26:23;;;;;;;35.20;23.13;;;3.60;96.60;;;;;;5037924;28;20592;-51
2022/03/24 05:28:51;;;;;;;35.17;22.30;;;3.60;96.90;;;;;;5032456;28;20623;-51
2022/03/24 05:31:22;;;;;;;35.03;23.53;;;3.60;96.80;;;;;;5032063;28;20222;-51
2022/03/24 05:33:50;;;;;;;35.27;23.00;;;3.60;96.80;;;;;;5031871;28;20237;-51
2022/03/24 05:36:19;;;;;;;34.87;22.93;;;3.70;97.00;;;;;;5032338;28;20208;-50
2022/03/24 05:38:47;;;;;;;33.27;23.00;;;3.60;96.80;;;;;;5032370;28;20226;-52
2022/03/24 05:41:15;;;;;;;31.37;21.87;;;3.60;97.00;;;;;;5032537;28;20218;-51
2022/03/24 05:44:02;;;;;;;34.97;22.73;;;3.60;97.30;;;;;;5031162;28;20260;-51
2022/03/24 05:46:44;;;;;;;34.00;22.67;;;3.60;97.10;;;;;;5035557;28;20213;-50
2022/03/24 05:49:14;;;;;;;33.40;23.20;;;3.60;97.00;;;;;;5051979;28;20213;-51
2022/03/24 05:51:43;;;;;;;32.73;22.20;;;3.60;97.30;;;;;;5052003;28;20201;-51
2022/03/24 05:54:11;;;;;;;34.70;22.77;;;3.60;97.20;;;;;;5051347;28;20673;-51
2022/03/24 05:56:40;;;;;;;33.83;23.53;;;3.60;97.20;;;;;;5051839;28;20203;-51
2022/03/24 05:59:08;;;;;;;39.70;24.90;;;3.60;97.80;;;;;;5051426;28;20207;-50
2022/03/24 06:01:37;;;;;;;36.70;24.57;;;3.70;98.10;;;;;;5051665;28;20268;-51
2022/03/24 06:04:08;;;;;;;35.13;24.87;;;3.90;97.90;;;;;;5051254;28;20209;-51
2022/03/24 06:06:37;;;;;;;34.63;23.77;;;4.00;97.80;;;;;;5051180;28;20233;-51
2022/03/24 06:09:07;;;;;;;34.90;24.33;;;4.00;97.70;;;;;;5051027;28;20222;-51
2022/03/24 06:11:37;;;;;;;35.80;24.90;;;4.10;97.80;;;;;;5050023;28;20239;-50
2022/03/24 06:14:07;;;;;;;39.07;25.87;;;4.10;98.10;;;;;;5049970;28;20607;-51
2022/03/24 06:16:36;;;;;;;35.53;23.73;;;4.20;97.90;;;;;;5050958;28;20193;-51
2022/03/24 06:19:04;;;;;;;35.07;23.80;;;4.40;97.90;;;;;;5047924;28;20232;-50
2022/03/24 06:21:33;;;;;;;35.00;23.67;;;4.60;98.00;;;;;;5031108;28;20213;-51
2022/03/24 06:24:02;;;;;;;31.47;22.60;;;4.80;98.00;;;;;;5034921;28;20205;-51
2022/03/24 06:26:30;;;;;;;35.13;24.97;;;5.00;97.90;;;;;;5051607;28;20216;-50
2022/03/24 06:28:58;;;;;;;35.17;24.53;;;5.10;97.70;;;;;;5051032;28;20232;-51
2022/03/24 06:31:27;;;;;;;34.10;23.13;;;5.10;97.70;;;;;;5050483;28;20213;-51
2022/03/24 06:33:56;;;;;;;39.00;26.13;;;5.20;97.50;;;;;;5050507;28;20209;-51
2022/03/24 06:36:24;;;;;;;36.20;26.03;;;5.30;97.90;;;;;;5051031;28;20208;-51
2022/03/24 06:38:53;;;;;;;35.83;24.80;;;5.40;97.70;;;;;;5051090;28;20221;-51
2022/03/24 06:41:22;;;;;;;37.50;25.50;;;5.50;97.90;;;;;;5051280;28;20213;-51
2022/03/24 06:43:50;;;;;;;35.57;26.10;;;5.70;98.00;;;;;;5047478;28;20232;-50
2022/03/24 06:46:19;;;;;;;35.93;25.37;;;5.80;98.00;;;;;;5035968;28;20206;-51
2022/03/24 06:48:47;;;;;;;36.90;26.13;;;5.90;98.00;;;;;;5044442;28;20730;-51
2022/03/24 06:51:15;;;;;;;36.40;27.77;;;6.10;97.80;;;;;;5034329;28;20211;-51
2022/03/24 06:53:43;;;;;;;33.33;24.30;;;6.40;97.80;;;;;;5030351;28;20209;-51
2022/03/24 06:56:13;;;;;;;33.23;24.77;;;6.80;98.40;;;;;;5030446;28;20675;-51
2022/03/24 06:58:43;;;;;;;33.03;24.47;;;7.20;98.80;;;;;;5031001;28;20222;-51
2022/03/24 07:01:11;;;;;;;31.70;24.33;;;7.50;98.30;;;;;;5050619;28;20282;-51
2022/03/24 07:03:40;;;;;;;31.47;23.90;;;7.90;98.70;;;;;;5049062;28;20271;-51
2022/03/24 07:06:09;;;;;;;33.83;23.70;;;8.10;99.40;;;;;;5031285;28;20619;-51
2022/03/24 07:08:37;;;;;;;28.33;23.10;;;8.30;99.30;;;;;;5037213;28;20287;-51
2022/03/24 07:11:06;;;;;;;30.37;23.13;;;8.50;98.80;;;;;;5050666;28;20233;-51
2022/03/24 07:13:35;;;;;;;30.17;23.97;;;8.70;98.70;;;;;;5049796;28;20693;-51
2022/03/24 07:16:09;;;;;;;32.27;24.00;;;9.00;98.80;;;;;;5030436;28;20197;-51
2022/03/24 07:18:37;;;;;;;29.30;22.93;;;9.20;97.80;;;;;;5030508;28;20233;-50
2022/03/24 07:21:06;;;;;;;27.43;22.47;;;9.40;97.40;;;;;;5030548;28;20252;-51
2022/03/24 07:23:34;;;;;;;30.53;22.40;;;9.60;97.70;;;;;;5030689;28;20206;-51
2022/03/24 07:26:03;;;;;;;25.83;21.40;;;9.70;96.50;;;;;;5050338;28;20259;-52
2022/03/24 07:28:31;;;;;;;29.53;22.47;;;9.90;95.80;;;;;;5049952;28;20313;-51
2022/03/24 07:31:09;;;;;;;31.63;22.33;;;10.10;96.00;;;;;;5050394;28;20244;-51
2022/03/24 07:33:37;;;;;;;28.90;22.40;;;10.30;95.70;;;;;;5050135;28;20639;-51
2022/03/24 07:36:06;;;;;;;31.90;22.07;;;10.40;96.40;;;;;;5050371;28;20263;-51
2022/03/24 07:38:35;;;;;;;28.33;22.97;;;10.50;95.70;;;;;;5050367;28;20232;-51
2022/03/24 07:41:03;;;;;;;28.13;22.23;;;10.60;95.20;;;;;;5050671;28;20206;-52
2022/03/24 07:43:31;;;;;;;30.73;22.10;;;10.80;95.40;;;;;;5052326;28;20205;-51
2022/03/24 07:46:01;;;;;;;27.20;21.73;;;10.90;94.90;;;;;;5054747;28;20209;-51
2022/03/24 07:48:30;;;;;;;27.40;22.53;;;10.90;94.80;;;;;;5054251;28;20237;-52
2022/03/24 07:51:00;;;;;;;27.53;21.50;;;11.00;94.20;;;;;;5034845;28;20260;-51
2022/03/24 07:53:51;;;;;;;28.27;22.20;;;11.20;94.40;;;;;;5034160;28;20703;-51
2022/03/24 07:56:25;;;;;;;29.30;22.70;;;11.40;93.20;;;;;;5034948;28;20214;-52
2022/03/24 07:58:54;;;;;;;30.90;22.27;;;11.50;93.90;;;;;;5034909;28;20280;-51
2022/03/24 08:01:29;;;;;;;30.30;23.57;;;11.60;93.50;;;;;;5054178;28;20202;-51
2022/03/24 08:03:58;;;;;;;28.97;22.37;;;11.50;92.50;;;;;;5053824;28;20209;-51
2022/03/24 08:06:28;;;;;;;30.63;23.10;;;11.30;92.00;;;;;;5054229;28;20589;-50
2022/03/24 08:08:56;;;;;;;30.03;23.77;;;11.20;92.60;;;;;;5054393;28;20252;-51
2022/03/24 08:11:25;;;;;;;30.53;23.10;;;11.20;92.70;;;;;;5054035;28;20201;-52
2022/03/24 08:13:54;;;;;;;36.30;23.37;;;11.10;93.50;;;;;;5044486;28;20253;-50
2022/03/24 08:16:22;;;;;;;30.10;23.30;;;11.10;93.60;;;;;;5034459;28;20210;-50
2022/03/24 08:18:53;;;;;;;34.00;23.70;;;11.10;93.30;;;;;;5032612;28;20229;-51
2022/03/24 08:21:22;;;;;;;33.03;24.03;;;11.20;92.80;;;;;;5034282;28;20694;-51
2022/03/24 08:23:50;;;;;;;33.37;24.97;;;11.20;92.70;;;;;;5036013;28;20238;-50
2022/03/24 08:26:18;;;;;;;33.60;24.10;;;11.20;92.70;;;;;;5053674;28;20239;-51
2022/03/24 08:28:55;;;;;;;31.27;24.13;;;11.20;93.00;;;;;;5053468;28;20610;-51
2022/03/24 08:31:23;;;;;;;32.80;25.20;;;11.30;92.70;;;;;;5041120;28;20636;-51
2022/03/24 08:33:53;;;;;;;33.73;25.37;;;11.50;92.20;;;;;;5033119;28;20210;-51
2022/03/24 08:36:22;;;;;;;31.93;24.67;;;11.50;91.50;;;;;;5033094;28;20679;-51
2022/03/24 08:38:51;;;;;;;32.67;24.57;;;11.70;92.10;;;;;;5032328;28;20291;-51
2022/03/24 08:41:20;;;;;;;34.13;24.47;;;11.80;91.50;;;;;;5033225;28;20214;-51
2022/03/24 08:43:50;;;;;;;31.47;24.33;;;11.80;92.40;;;;;;5032633;28;20237;-51
2022/03/24 08:46:24;;;;;;;32.67;24.33;;;11.90;90.40;;;;;;5034376;28;20214;-51
2022/03/24 08:48:54;;;;;;;32.83;23.77;;;11.90;90.60;;;;;;5053108;28;20237;-51
2022/03/24 08:51:23;;;;;;;35.87;24.87;;;11.90;90.40;;;;;;5053425;28;20888;-51
2022/03/24 08:53:52;;;;;;;32.43;24.13;;;12.00;90.60;;;;;;5052366;28;20558;-51
2022/03/24 08:56:20;;;;;;;36.20;24.80;;;12.00;91.20;;;;;;5053511;28;20214;-51
2022/03/24 08:58:48;;;;;;;35.23;24.47;;;12.10;91.70;;;;;;5052985;28;20611;-51
2022/03/24 09:01:19;;;;;;;35.10;24.80;;;12.20;90.80;;;;;;5053262;28;20210;-51
2022/03/24 09:03:49;;;;;;;31.30;22.90;;;12.20;90.60;;;;;;5052398;28;20212;-51
2022/03/24 09:06:20;;;;;;;31.00;24.87;;;12.30;91.30;;;;;;5033113;28;20663;-51
2022/03/24 09:08:48;;;;;;;33.37;24.90;;;12.40;91.70;;;;;;5043734;28;20230;-51
2022/03/24 09:11:18;;;;;;;35.77;25.57;;;12.50;91.30;;;;;;5044442;28;20209;-51
2022/03/24 09:13:46;;;;;;;31.00;24.77;;;12.60;91.00;;;;;;5051837;28;20206;-51
2022/03/24 09:16:15;;;;;;;33.40;25.40;;;12.60;90.60;;;;;;5052514;28;20671;-51
2022/03/24 09:18:44;;;;;;;33.57;26.17;;;12.60;91.90;;;;;;5051164;28;20232;-51
2022/03/24 09:21:13;;;;;;;32.10;25.10;;;12.70;91.20;;;;;;5047998;28;20268;-50
2022/03/24 09:23:42;;;;;;;32.73;25.50;;;12.70;92.20;;;;;;5038972;28;20212;-50
2022/03/24 09:26:12;;;;;;;35.43;26.80;;;12.90;92.30;;;;;;5052972;28;20213;-50
2022/03/24 09:28:57;;;;;;;36.53;25.73;;;12.90;92.20;;;;;;5052693;28;20228;-51
2022/03/24 09:31:25;;;;;;;32.70;26.13;;;13.00;92.10;;;;;;5051709;28;20243;-51
2022/03/24 09:33:53;;;;;;;33.10;25.80;;;13.00;92.20;;;;;;5051682;28;20209;-50
2022/03/24 09:36:22;;;;;;;32.37;25.90;;;13.00;91.20;;;;;;5052086;28;20264;-50
2022/03/24 09:38:51;;;;;;;32.87;24.97;;;13.10;91.70;;;;;;5051509;28;20711;-51
2022/03/24 09:41:20;;;;;;;32.63;25.03;;;13.20;91.40;;;;;;5051894;28;20209;-50
2022/03/24 09:43:49;;;;;;;33.43;24.23;;;13.20;90.70;;;;;;5051709;28;20213;-51
2022/03/24 09:46:20;;;;;;;32.07;24.47;;;13.30;90.90;;;;;;5051635;28;20687;-51
2022/03/24 09:48:48;;;;;;;29.93;24.60;;;13.40;90.90;;;;;;5051091;28;20316;-51
2022/03/24 09:51:17;;;;;;;32.93;24.13;;;13.60;91.20;;;;;;5051086;28;20205;-51
2022/03/24 09:53:45;;;;;;;31.67;23.53;;;13.60;90.30;;;;;;5051603;28;20201;-50
2022/03/24 09:56:15;;;;;;;30.93;24.80;;;13.70;89.70;;;;;;5051570;28;20633;-51
2022/03/24 09:58:44;;;;;;;30.73;24.30;;;13.70;90.50;;;;;;5051654;28;20221;-51
2022/03/24 10:01:17;;;;;;;29.37;23.33;;;13.80;89.00;;;;;;5051725;28;20217;-51
2022/03/24 10:04:02;;;;;;;31.03;24.07;;;13.90;89.80;;;;;;5051725;28;20205;-51
2022/03/24 10:06:30;;;;;;;32.83;25.37;;;13.90;89.20;;;;;;5030792;28;20202;-51
2022/03/24 10:08:59;;;;;;;29.37;23.80;;;14.00;88.80;;;;;;5041232;28;20233;-51
2022/03/24 10:11:28;;;;;;;30.53;24.17;;;14.10;87.30;;;;;;5051170;28;20216;-51
2022/03/24 10:13:58;;;;;;;31.77;23.50;;;14.10;89.30;;;;;;5050801;28;20618;-50
2022/03/24 10:16:44;;;;;;;31.83;23.60;;;14.20;90.30;;;;;;5051164;28;20638;-50
2022/03/24 10:19:15;;;;;;;33.60;24.40;;;14.30;88.40;;;;;;5049494;28;20193;-50
2022/03/24 10:21:46;;;;;;;31.97;24.33;;;14.30;88.60;;;;;;5051190;28;20217;-51
2022/03/24 10:24:16;;;;;;;35.00;24.30;;;14.40;83.60;;;;;;5044604;28;20190;-50
2022/03/24 10:26:48;;;;;;;31.43;23.37;;;14.40;86.10;;;;;;5051509;28;20201;-51
2022/03/24 10:29:18;;;;;;;32.13;24.40;;;14.50;88.90;;;;;;5051395;28;20215;-51
2022/03/24 10:31:53;;;;;;;33.63;24.37;;;14.50;86.40;;;;;;5050605;28;20720;-51
2022/03/24 10:34:30;;;;;;;31.93;24.70;;;14.60;87.90;;;;;;5051474;28;20207;-51
2022/03/24 10:37:03;;;;;;;30.23;25.40;;;14.70;87.70;;;;;;5051658;28;20205;-51
2022/03/24 10:39:31;;;;;;;31.80;25.17;;;14.80;86.70;;;;;;5051584;28;20205;-51
2022/03/24 10:42:14;;;;;;;30.57;24.03;;;14.70;87.20;;;;;;5050772;28;20255;-50
2022/03/24 10:45:07;;;;;;;29.13;23.67;;;14.80;86.20;;;;;;5050945;28;20569;-51
2022/03/24 10:47:41;;;;;;;29.17;22.73;;;15.00;90.70;;;;;;5051197;28;20287;-51
2022/03/24 10:50:25;;;;;;;30.53;23.60;;;15.10;89.50;;;;;;5045457;28;20214;-51
2022/03/24 10:52:54;;;;;;;35.23;24.27;;;15.10;85.90;;;;;;5047766;28;20267;-51
2022/03/24 10:55:40;;;;;;;29.27;24.30;;;15.10;84.60;;;;;;5050641;28;20201;-51
2022/03/24 10:58:14;;;;;;;28.23;22.50;;;15.10;82.90;;;;;;5045435;28;20217;-50
2022/03/24 11:00:43;;;;;;;30.67;24.07;;;15.10;84.80;;;;;;5047225;28;20202;-51
2022/03/24 11:03:12;;;;;;;29.87;23.37;;;15.20;84.00;;;;;;5050211;28;20240;-51
2022/03/24 11:05:40;;;;;;;32.57;23.83;;;15.20;84.50;;;;;;5050322;28;20629;-51
2022/03/24 11:08:09;;;;;;;31.77;23.17;;;15.30;84.50;;;;;;5050408;28;20637;-53
2022/03/24 11:10:46;;;;;;;29.00;23.38;;;15.30;84.60;;;;;;5050560;28;20221;-51
2022/03/24 11:13:31;;;;;;;30.30;23.17;;;15.30;81.80;;;;;;5049866;28;20590;-51
2022/03/24 11:15:59;;;;;;;28.73;23.53;;;15.30;80.80;;;;;;5050735;28;20211;-51
2022/03/24 11:18:28;;;;;;;28.90;23.30;;;15.40;82.70;;;;;;5051831;28;20227;-51
2022/03/24 11:21:04;;;;;;;29.67;22.33;;;15.40;80.30;;;;;;5054704;28;20259;-51
2022/03/24 11:23:39;;;;;;;30.85;24.50;;;15.50;81.10;;;;;;5053742;28;20205;-51
2022/03/24 11:26:10;;;;;;;31.98;25.42;;;15.60;83.30;;;;;;5054585;28;20236;-51
2022/03/24 11:28:41;;;;;;;31.30;24.33;;;15.60;79.70;;;;;;5054097;28;20252;-51
2022/03/24 11:31:15;;;;;;;29.88;24.45;;;15.70;81.90;;;;;;5054049;28;20706;-51
2022/03/24 11:33:46;;;;;;;32.77;23.13;;;15.70;83.00;;;;;;5053929;28;20204;-51
2022/03/24 11:36:16;;;;;;;27.77;23.17;;;15.70;81.10;;;;;;5054327;28;20194;-52
2022/03/24 11:38:48;;;;;;;34.70;24.65;;;15.80;79.20;;;;;;5054533;28;20229;-51
2022/03/24 11:41:22;;;;;;;29.63;23.92;;;15.70;78.50;;;;;;5054329;28;20255;-50
2022/03/24 11:44:02;;;;;;;30.25;22.52;;;15.80;81.60;;;;;;5053566;28;20706;-51
2022/03/24 11:46:36;;;;;;;27.65;21.63;;;15.90;79.30;;;;;;5053757;28;20535;-51
2022/03/24 11:49:19;;;;;;;28.70;20.95;;;15.90;76.50;;;;;;5054278;28;20282;-51
2022/03/24 11:51:49;;;;;;;30.27;21.38;;;16.00;77.90;;;;;;5053591;28;20230;-50
2022/03/24 11:54:27;;;;;;;25.20;19.55;;;16.00;79.90;;;;;;5053808;28;20210;-51
2022/03/24 11:57:27;;;;;;;27.38;21.58;;;16.00;75.80;;;;;;5053896;28;20239;-51
2022/03/24 12:00:36;;;;;;;29.30;21.92;;;16.10;76.80;;;;;;5053937;28;20221;-51
2022/03/24 12:03:40;;;;;;;27.42;21.42;;;16.20;78.60;;;;;;5035811;28;20202;-50
2022/03/24 12:06:08;;;;;;;29.33;21.00;;;16.10;72.30;;;;;;5052837;28;20670;-51
2022/03/24 12:08:51;;;;;;;25.77;19.77;;;16.10;72.50;;;;;;5053541;28;20592;-51
2022/03/24 12:11:41;;;;;;;26.80;20.08;;;16.10;73.60;;;;;;5053651;28;20229;-51
2022/03/24 12:14:13;;;;;;;27.23;19.55;;;16.10;73.10;;;;;;5052963;28;20263;-51
2022/03/24 12:16:43;;;;;;;26.80;19.48;;;16.10;71.20;;;;;;5054007;28;20248;-51
2022/03/24 12:19:40;;;;;;;25.90;20.50;;;16.20;73.70;;;;;;5053534;28;20248;-51
2022/03/24 12:22:34;;;;;;;28.88;19.83;;;16.20;73.70;;;;;;5053275;28;20248;-51
2022/03/24 12:25:26;;;;;;;25.38;18.48;;;16.20;72.00;;;;;;5053383;28;20629;-51
2022/03/24 12:27:58;;;;;;;27.80;19.50;;;16.30;71.80;;;;;;5053232;28;20312;-51
2022/03/24 12:30:27;;;;;;;26.33;19.70;;;16.30;72.00;;;;;;5052261;28;20275;-50
2022/03/24 12:33:05;;;;;;;27.00;19.38;;;16.30;72.70;;;;;;5053020;28;20190;-51
2022/03/24 12:35:46;;;;;;;25.05;18.52;;;16.40;75.20;;;;;;5053675;28;20205;-51
2022/03/24 12:38:55;;;;;;;26.00;19.27;;;16.50;75.10;;;;;;5053329;28;20226;-51
2022/03/24 12:41:27;;;;;;;27.42;19.25;;;16.60;75.60;;;;;;5028252;28;20206;-51
2022/03/24 12:43:58;;;;;;;26.15;18.40;;;16.50;72.40;;;;;;5032527;28;20245;-51
2022/03/24 12:46:32;;;;;;;25.75;17.75;;;16.50;71.50;;;;;;5033351;28;20210;-51
2022/03/24 12:49:08;;;;;;;23.70;18.30;;;16.50;72.50;;;;;;5032769;28;20598;-51
2022/03/24 12:51:52;;;;;;;24.35;17.65;;;16.60;71.70;;;;;;5036465;28;20616;-51